createdAt,value
2023-05-19T00:01:30.032Z,3.70
2023-05-19T00:03:59.186Z,4.65
2023-05-19T00:06:31.850Z,3.72
2023-05-19T00:09:03.237Z,3.88
2023-05-19T00:11:31.258Z,3.38
2023-05-19T00:14:01.743Z,4.20
2023-05-19T00:16:30.922Z,3.13
2023-05-19T00:19:03.038Z,5.03
2023-05-19T00:21:31.520Z,3.83
2023-05-19T00:23:59.293Z,3.67
2023-05-19T00:26:28.314Z,3.47
2023-05-19T00:28:55.919Z,3.30
2023-05-19T00:31:23.275Z,3.97
2023-05-19T00:33:50.489Z,3.67
2023-05-19T00:36:17.757Z,3.45
2023-05-19T00:38:45.004Z,3.72
2023-05-19T00:41:12.248Z,2.88
2023-05-19T00:43:39.548Z,3.17
2023-05-19T00:46:07.603Z,3.22
2023-05-19T00:48:34.935Z,3.67
2023-05-19T00:51:05.989Z,4.40
2023-05-19T00:53:34.439Z,3.80
2023-05-19T00:56:03.493Z,4.50
2023-05-19T00:58:32.915Z,4.78
2023-05-19T01:01:05.299Z,3.92
2023-05-19T01:03:37.608Z,3.33
2023-05-19T01:06:05.708Z,4.55
2023-05-19T01:08:34.765Z,3.90
2023-05-19T01:11:02.229Z,5.07
2023-05-19T01:13:29.899Z,3.03
2023-05-19T01:16:13.244Z,2.80
2023-05-19T01:18:51.163Z,4.05
2023-05-19T01:21:45.685Z,3.65
2023-05-19T01:24:39.904Z,2.75
2023-05-19T01:27:57.019Z,4.10
2023-05-19T01:30:48.941Z,3.35
2023-05-19T01:33:16.697Z,3.70
2023-05-19T01:35:45.977Z,3.38
2023-05-19T01:38:16.729Z,3.88
2023-05-19T01:40:45.313Z,5.47
2023-05-19T01:43:17.786Z,3.95
2023-05-19T01:45:46.001Z,4.45
2023-05-19T01:48:14.730Z,4.95
2023-05-19T01:50:43.050Z,3.17
2023-05-19T01:53:11.170Z,3.50
2023-05-19T01:55:49.773Z,3.55
2023-05-19T01:58:53.606Z,4.35
2023-05-19T02:01:44.664Z,4.85
2023-05-19T02:05:10.585Z,7.20
2023-05-19T02:07:52.635Z,4.75
2023-05-19T02:13:13.533Z,3.10
2023-05-19T02:15:46.832Z,4.20
2023-05-19T02:18:18.211Z,4.10
2023-05-19T02:21:04.989Z,3.53
2023-05-19T02:23:32.329Z,3.72
2023-05-19T02:25:59.555Z,4.55
2023-05-19T02:28:28.539Z,4.60
2023-05-19T02:30:55.897Z,3.47
2023-05-19T02:33:26.201Z,4.57
2023-05-19T02:35:54.032Z,6.40
2023-05-19T02:38:21.534Z,4.10
2023-05-19T02:40:48.664Z,4.00
2023-05-19T02:43:15.973Z,5.45
2023-05-19T02:45:43.189Z,3.40
2023-05-19T02:48:10.831Z,4.95
2023-05-19T02:50:38.206Z,4.60
2023-05-19T02:53:05.406Z,4.90
2023-05-19T02:55:32.586Z,4.20
2023-05-19T02:58:00.038Z,3.83
2023-05-19T03:00:27.223Z,5.05
2023-05-19T03:02:54.719Z,4.38
2023-05-19T03:05:22.085Z,3.78
2023-05-19T03:07:49.345Z,3.10
2023-05-19T03:10:16.566Z,4.10
2023-05-19T03:12:43.765Z,5.13
2023-05-19T03:15:13.247Z,3.92
2023-05-19T03:17:41.010Z,3.85
2023-05-19T03:20:09.149Z,4.03
2023-05-19T03:22:36.457Z,3.28
2023-05-19T03:25:05.035Z,4.53
2023-05-19T03:27:32.167Z,4.78
2023-05-19T03:29:59.349Z,4.43
2023-05-19T03:32:26.751Z,4.50
2023-05-19T03:34:53.961Z,5.28
2023-05-19T03:37:21.199Z,3.63
2023-05-19T03:39:48.470Z,5.65
2023-05-19T03:42:16.251Z,4.55
2023-05-19T03:44:44.750Z,4.95
2023-05-19T03:47:12.200Z,4.13
2023-05-19T03:49:39.436Z,4.50
2023-05-19T03:52:06.752Z,4.63
2023-05-19T03:54:34.076Z,4.78
2023-05-19T03:57:02.273Z,3.75
2023-05-19T03:59:29.432Z,5.45
2023-05-19T04:01:57.957Z,3.97
2023-05-19T04:04:25.485Z,3.33
2023-05-19T04:06:52.748Z,4.00
2023-05-19T04:09:19.968Z,5.43
2023-05-19T04:11:47.172Z,2.67
2023-05-19T04:14:14.360Z,4.60
2023-05-19T04:16:41.900Z,3.88
2023-05-19T04:19:09.132Z,4.60
2023-05-19T04:21:36.574Z,3.38
2023-05-19T04:24:06.718Z,3.60
2023-05-19T04:26:34.681Z,4.15
2023-05-19T04:29:05.062Z,3.80
2023-05-19T04:31:34.572Z,3.38
2023-05-19T04:34:02.009Z,4.20
2023-05-19T04:36:29.218Z,3.38
2023-05-19T04:39:02.387Z,5.47
2023-05-19T04:41:29.790Z,5.18
2023-05-19T04:43:57.675Z,3.40
2023-05-19T04:46:26.183Z,3.53
2023-05-19T04:48:55.488Z,4.38
2023-05-19T04:51:23.277Z,4.28
2023-05-19T04:53:51.760Z,4.28
2023-05-19T04:56:18.958Z,4.32
2023-05-19T04:58:47.248Z,3.75
2023-05-19T05:01:15.935Z,3.80
2023-05-19T05:03:43.683Z,4.63
2023-05-19T05:06:12.404Z,3.53
2023-05-19T05:08:41.345Z,5.70
2023-05-19T05:11:09.188Z,3.63
2023-05-19T05:13:36.906Z,4.05
2023-05-19T05:16:06.743Z,3.97
2023-05-19T05:18:35.328Z,5.13
2023-05-19T05:21:06.476Z,3.33
2023-05-19T05:23:34.081Z,3.22
2023-05-19T05:26:10.780Z,5.60
2023-05-19T05:28:38.011Z,6.47
2023-05-19T05:31:07.533Z,4.93
2023-05-19T05:33:34.773Z,3.88
2023-05-19T05:36:04.354Z,3.65
2023-05-19T05:38:40.439Z,5.82
2023-05-19T05:41:07.706Z,4.05
2023-05-19T05:43:35.008Z,4.20
2023-05-19T05:46:03.892Z,6.03
2023-05-19T05:48:32.932Z,5.72
2023-05-19T05:51:00.601Z,5.13
2023-05-19T05:53:32.508Z,5.95
2023-05-19T05:58:29.032Z,4.68
2023-05-19T06:00:57.883Z,4.50
2023-05-19T06:03:25.341Z,4.15
2023-05-19T06:05:52.820Z,3.28
2023-05-19T06:08:23.028Z,4.13
2023-05-19T06:10:50.519Z,4.22
2023-05-19T06:13:22.349Z,3.80
2023-05-19T06:15:50.254Z,2.63
2023-05-19T06:18:17.739Z,4.43
2023-05-19T06:20:45.129Z,3.58
2023-05-19T06:23:12.349Z,3.15
2023-05-19T06:25:39.670Z,5.63
2023-05-19T06:28:06.824Z,4.57
2023-05-19T06:30:36.929Z,4.95
2023-05-19T06:33:05.790Z,3.85
2023-05-19T06:35:33.091Z,3.38
2023-05-19T06:38:02.051Z,3.85
2023-05-19T06:40:29.708Z,5.22
2023-05-19T06:42:57.769Z,4.88
2023-05-19T06:45:24.896Z,3.63
2023-05-19T06:47:52.194Z,3.97
2023-05-19T06:50:19.564Z,4.40
2023-05-19T06:52:47.287Z,4.18
2023-05-19T06:55:14.696Z,4.03
2023-05-19T06:57:41.963Z,3.97
2023-05-19T07:00:15.839Z,4.28
2023-05-19T07:02:45.238Z,3.88
2023-05-19T07:05:12.816Z,3.67
2023-05-19T07:07:40.047Z,4.30
2023-05-19T07:10:07.985Z,3.40
2023-05-19T07:12:35.175Z,3.85
2023-05-19T07:15:02.575Z,5.63
2023-05-19T07:17:29.792Z,4.00
2023-05-19T07:19:57.039Z,5.82
2023-05-19T07:22:24.388Z,4.18
2023-05-19T07:24:51.599Z,4.15
2023-05-19T07:27:19.068Z,4.20
2023-05-19T07:29:46.409Z,4.63
2023-05-19T07:32:13.688Z,4.95
2023-05-19T07:34:41.641Z,4.03
2023-05-19T07:37:08.988Z,3.83
2023-05-19T07:39:45.395Z,5.45
2023-05-19T07:42:15.969Z,5.32
2023-05-19T07:44:46.499Z,4.68
2023-05-19T07:47:20.052Z,4.10
2023-05-19T07:49:50.389Z,4.47
2023-05-19T07:52:20.465Z,4.43
2023-05-19T07:54:50.223Z,3.70
2023-05-19T07:57:19.085Z,3.22
2023-05-19T07:59:46.485Z,4.25
2023-05-19T08:02:15.679Z,4.43
2023-05-19T08:04:43.043Z,4.18
2023-05-19T08:07:10.396Z,3.75
2023-05-19T08:09:37.563Z,3.45
2023-05-19T08:12:05.171Z,3.75
2023-05-19T08:14:33.545Z,3.63
2023-05-19T08:17:01.122Z,4.22
2023-05-19T08:19:28.429Z,4.40
2023-05-19T08:21:57.753Z,4.35
2023-05-19T08:24:26.954Z,3.30
2023-05-19T08:26:54.272Z,4.35
2023-05-19T08:29:21.840Z,4.43
2023-05-19T08:31:49.143Z,4.90
2023-05-19T08:34:16.738Z,3.40
2023-05-19T08:36:45.400Z,4.35
2023-05-19T08:39:14.102Z,4.28
2023-05-19T08:41:41.329Z,4.63
2023-05-19T08:44:08.563Z,4.22
2023-05-19T08:46:36.253Z,4.20
2023-05-19T08:49:13.420Z,5.43
2023-05-19T08:52:27.315Z,4.30
2023-05-19T08:55:08.068Z,4.05
2023-05-19T08:57:37.014Z,4.25
2023-05-19T09:00:09.698Z,3.33
2023-05-19T09:02:50.309Z,4.30
2023-05-19T09:05:26.733Z,4.40
2023-05-19T09:07:54.002Z,3.83
2023-05-19T09:10:21.353Z,4.10
2023-05-19T09:12:49.864Z,4.43
2023-05-19T09:15:20.347Z,4.38
2023-05-19T09:17:50.689Z,4.50
2023-05-19T09:20:18.072Z,4.10
2023-05-19T09:22:47.494Z,5.05
2023-05-19T09:25:24.506Z,3.85
2023-05-19T09:27:54.528Z,4.22
2023-05-19T09:30:21.831Z,4.05
2023-05-19T09:32:49.093Z,4.43
2023-05-19T09:35:20.814Z,4.32
2023-05-19T09:37:48.406Z,4.82
2023-05-19T09:40:16.742Z,4.68
2023-05-19T09:42:48.930Z,3.83
2023-05-19T09:45:16.704Z,5.13
2023-05-19T09:47:44.098Z,6.25
2023-05-19T09:50:12.858Z,4.63
2023-05-19T09:52:43.808Z,5.05
2023-05-19T09:55:13.615Z,5.05
2023-05-19T09:57:42.145Z,4.97
2023-05-19T10:00:13.806Z,4.78
2023-05-19T10:02:47.728Z,3.88
2023-05-19T10:05:20.071Z,4.35
2023-05-19T10:07:51.667Z,7.05
2023-05-19T10:10:23.309Z,5.28
2023-05-19T10:12:50.904Z,3.60
2023-05-19T10:15:22.168Z,4.00
2023-05-19T10:17:51.087Z,3.78
2023-05-19T10:20:18.927Z,3.53
2023-05-19T10:22:47.268Z,4.22
2023-05-19T10:25:16.865Z,3.95
2023-05-19T10:28:08.547Z,4.45
2023-05-19T10:30:41.372Z,3.40
2023-05-19T10:33:13.349Z,3.45
2023-05-19T10:36:09.289Z,4.00
2023-05-19T10:38:46.326Z,6.68
2023-05-19T10:41:46.976Z,4.22
2023-05-19T10:44:42.992Z,3.25
2023-05-19T10:47:12.438Z,3.38
2023-05-19T10:49:40.338Z,3.75
2023-05-19T10:52:30.191Z,3.72
2023-05-19T10:54:58.445Z,3.38
2023-05-19T10:57:28.315Z,3.03
2023-05-19T10:59:59.727Z,4.10
2023-05-19T11:02:41.382Z,3.45
2023-05-19T11:05:15.117Z,3.05
2023-05-19T11:08:04.566Z,3.25
2023-05-19T11:10:32.524Z,3.03
2023-05-19T11:13:00.368Z,3.33
2023-05-19T11:15:29.050Z,2.90
2023-05-19T11:17:57.286Z,3.08
2023-05-19T11:20:30.289Z,5.25
2023-05-19T11:23:08.821Z,4.25
2023-05-19T11:25:48.461Z,3.50
2023-05-19T11:28:28.092Z,3.38
2023-05-19T11:30:58.030Z,3.58
2023-05-19T11:33:42.588Z,3.63
2023-05-19T11:36:11.794Z,3.95
2023-05-19T11:38:41.774Z,4.43
2023-05-19T11:41:09.238Z,3.00
2023-05-19T11:43:40.648Z,2.80
2023-05-19T11:46:09.900Z,3.88
2023-05-19T11:48:37.225Z,3.70
2023-05-19T11:51:06.675Z,3.22
2023-05-19T11:53:36.362Z,4.35
2023-05-19T11:56:07.185Z,3.33
2023-05-19T11:58:34.386Z,2.90
2023-05-19T12:01:05.010Z,3.22
2023-05-19T12:03:33.178Z,2.85
2023-05-19T12:06:00.918Z,2.65
2023-05-19T12:08:29.687Z,2.72
2023-05-19T12:10:57.390Z,2.85
2023-05-19T12:13:25.725Z,3.50
2023-05-19T12:15:54.922Z,3.33
2023-05-19T12:18:22.402Z,2.85
2023-05-19T12:20:50.777Z,5.10
2023-05-19T12:23:18.092Z,2.53
2023-05-19T12:25:45.407Z,2.60
2023-05-19T12:28:12.908Z,3.38
2023-05-19T12:30:40.250Z,2.63
2023-05-19T12:33:11.336Z,2.78
2023-05-19T12:35:38.711Z,2.97
2023-05-19T12:38:07.188Z,2.28
2023-05-19T12:40:36.621Z,2.20
2023-05-19T12:43:04.632Z,3.63
2023-05-19T12:45:37.342Z,2.72
2023-05-19T12:48:16.279Z,3.78
2023-05-19T12:50:47.765Z,2.50
2023-05-19T12:53:16.530Z,3.50
2023-05-19T12:55:45.638Z,2.72
2023-05-19T12:58:13.407Z,2.85
2023-05-19T13:00:43.823Z,2.50
2023-05-19T13:03:19.717Z,2.72
2023-05-19T13:05:50.670Z,2.50
2023-05-19T13:08:24.177Z,3.10
2023-05-19T13:10:51.979Z,2.70
2023-05-19T13:13:19.751Z,2.70
2023-05-19T13:15:50.764Z,2.60
2023-05-19T13:18:18.707Z,2.40
2023-05-19T13:20:49.218Z,2.40
2023-05-19T13:23:16.655Z,2.65
2023-05-19T13:25:44.333Z,2.45
2023-05-19T13:28:12.958Z,2.80
2023-05-19T13:30:42.048Z,3.35
2023-05-19T13:33:09.477Z,3.17
2023-05-19T13:35:38.566Z,2.40
2023-05-19T13:38:10.512Z,3.75
2023-05-19T13:43:06.200Z,2.20
2023-05-19T13:45:34.555Z,2.75
2023-05-19T13:48:02.090Z,2.30
2023-05-19T13:50:29.469Z,2.70
2023-05-19T13:52:56.841Z,3.50
2023-05-19T13:55:24.287Z,3.38
2023-05-19T13:57:51.606Z,8.45
2023-05-19T14:00:19.689Z,3.83
2023-05-19T14:02:46.955Z,4.50
2023-05-19T14:05:14.248Z,2.45
2023-05-19T14:07:41.567Z,2.50
2023-05-19T14:10:09.467Z,4.10
2023-05-19T14:12:55.137Z,4.00
2023-05-19T14:15:24.250Z,3.22
2023-05-19T14:17:53.765Z,3.50
2023-05-19T14:20:21.083Z,4.13
2023-05-19T14:22:48.335Z,3.20
2023-05-19T14:25:15.654Z,2.50
2023-05-19T14:27:42.783Z,4.20
2023-05-19T14:30:10.760Z,2.78
2023-05-19T14:32:38.081Z,2.80
2023-05-19T14:35:06.491Z,3.03
2023-05-19T14:37:33.844Z,2.65
2023-05-19T14:40:01.210Z,3.03
2023-05-19T14:42:28.359Z,2.20
2023-05-19T14:44:56.123Z,2.03
2023-05-19T14:47:23.535Z,2.35
2023-05-19T14:49:51.607Z,1.95
2023-05-19T14:52:18.885Z,1.95
2023-05-19T14:54:46.155Z,3.13
2023-05-19T14:57:13.445Z,2.00
2023-05-19T14:59:40.845Z,1.80
2023-05-19T15:02:08.105Z,3.67
2023-05-19T15:04:35.283Z,2.20
2023-05-19T15:09:32.523Z,1.55
2023-05-19T15:12:02.788Z,2.03
2023-05-19T15:14:31.020Z,1.88
2023-05-19T15:16:59.125Z,2.05
2023-05-19T15:19:26.897Z,4.40
2023-05-19T15:21:54.372Z,2.10
2023-05-19T15:24:21.613Z,2.30
2023-05-19T15:26:49.003Z,2.30
2023-05-19T15:29:16.485Z,1.38
2023-05-19T15:31:43.894Z,2.42
2023-05-19T15:34:11.126Z,1.98
2023-05-19T15:36:38.450Z,1.85
2023-05-19T15:39:06.662Z,1.98
2023-05-19T15:41:33.959Z,2.40
2023-05-19T15:44:02.507Z,2.15
2023-05-19T15:46:30.621Z,2.50
2023-05-19T15:48:57.934Z,2.42
2023-05-19T15:51:25.730Z,2.10
2023-05-19T15:53:53.391Z,2.15
2023-05-19T15:56:21.718Z,3.08
2023-05-19T15:58:49.162Z,2.20
2023-05-19T16:01:17.036Z,2.20
2023-05-19T16:03:45.979Z,2.25
2023-05-19T16:06:13.443Z,3.05
2023-05-19T16:08:40.632Z,2.33
2023-05-19T16:11:07.979Z,2.05
2023-05-19T16:13:35.318Z,2.40
2023-05-19T16:16:02.806Z,2.03
2023-05-19T16:18:30.159Z,2.58
2023-05-19T16:20:57.436Z,1.80
2023-05-19T16:23:24.952Z,1.70
2023-05-19T16:25:52.430Z,1.85
2023-05-19T16:28:20.093Z,1.70
2023-05-19T16:30:48.150Z,2.25
2023-05-19T16:33:15.409Z,1.60
2023-05-19T16:35:42.742Z,1.80
2023-05-19T16:38:09.916Z,1.88
2023-05-19T16:40:37.230Z,2.60
2023-05-19T16:43:04.542Z,3.33
2023-05-19T16:45:31.710Z,3.13
2023-05-19T16:47:58.907Z,2.15
2023-05-19T16:50:26.129Z,1.80
2023-05-19T16:52:53.229Z,1.70
2023-05-19T16:55:20.750Z,1.65
2023-05-19T16:57:47.967Z,2.85
2023-05-19T17:00:16.054Z,2.28
2023-05-19T17:02:43.324Z,1.80
2023-05-19T17:05:10.610Z,1.83
2023-05-19T17:07:37.710Z,3.35
2023-05-19T17:10:05.771Z,1.60
2023-05-19T17:12:32.957Z,1.90
2023-05-19T17:15:00.188Z,1.30
2023-05-19T17:17:27.526Z,2.22
2023-05-19T17:19:54.725Z,1.73
2023-05-19T17:22:21.928Z,1.85
2023-05-19T17:24:49.088Z,1.50
2023-05-19T17:27:16.327Z,1.98
2023-05-19T17:29:43.547Z,2.00
2023-05-19T17:32:10.746Z,2.20
2023-05-19T17:34:39.281Z,2.10
2023-05-19T17:37:06.409Z,2.20
2023-05-19T17:39:34.008Z,1.60
2023-05-19T17:42:01.285Z,2.38
2023-05-19T17:44:28.426Z,2.20
2023-05-19T17:46:55.831Z,1.92
2023-05-19T17:49:24.486Z,1.98
2023-05-19T17:51:52.311Z,1.92
2023-05-19T17:54:20.630Z,1.83
2023-05-19T17:56:49.169Z,1.20
2023-05-19T17:59:16.747Z,1.73
2023-05-19T18:01:44.486Z,1.83
2023-05-19T18:04:13.932Z,3.08
2023-05-19T18:06:48.306Z,2.15
2023-05-19T18:09:19.661Z,1.50
2023-05-19T18:11:46.935Z,2.38
2023-05-19T18:14:14.152Z,2.90
2023-05-19T18:16:41.373Z,4.07
2023-05-19T18:19:08.929Z,1.40
2023-05-19T18:21:36.127Z,1.35
2023-05-19T18:24:04.575Z,2.20
2023-05-19T18:26:33.244Z,1.75
2023-05-19T18:29:02.923Z,1.35
2023-05-19T18:31:30.509Z,1.45
2023-05-19T18:33:57.683Z,1.52
2023-05-19T18:36:24.823Z,1.73
2023-05-19T18:38:52.332Z,1.70
2023-05-19T18:41:19.507Z,1.27
2023-05-19T18:43:46.865Z,2.00
2023-05-19T18:46:14.142Z,2.05
2023-05-19T18:48:41.504Z,1.80
2023-05-19T18:51:09.492Z,1.73
2023-05-19T18:53:37.245Z,2.25
2023-05-19T18:56:04.857Z,2.20
2023-05-19T18:58:32.706Z,2.67
2023-05-19T19:00:59.856Z,1.95
2023-05-19T19:03:28.777Z,1.80
2023-05-19T19:05:57.786Z,1.92
2023-05-19T19:08:25.234Z,1.85
2023-05-19T19:10:53.669Z,1.63
2023-05-19T19:13:21.285Z,1.80
2023-05-19T19:15:48.471Z,1.98
2023-05-19T19:18:16.064Z,1.90
2023-05-19T19:20:43.347Z,2.33
2023-05-19T19:23:10.667Z,1.77
2023-05-19T19:25:38.008Z,1.48
2023-05-19T19:28:05.184Z,1.67
2023-05-19T19:30:32.625Z,2.10
2023-05-19T19:33:00.366Z,1.98
2023-05-19T19:35:27.787Z,1.63
2023-05-19T19:37:55.107Z,2.10
2023-05-19T19:40:22.574Z,2.25
2023-05-19T19:42:51.864Z,1.98
2023-05-19T19:45:19.749Z,2.38
